createdAt,value
2023-04-01T00:00:47.769Z,93997.00
2023-04-01T00:01:47.784Z,93995.00
2023-04-01T00:02:47.845Z,93990.00
2023-04-01T00:03:47.902Z,93986.00
2023-04-01T00:04:47.807Z,93988.00
2023-04-01T00:05:47.780Z,93988.00
2023-04-01T00:06:47.783Z,93992.00
2023-04-01T00:07:47.785Z,93994.00
2023-04-01T00:08:47.811Z,93990.00
2023-04-01T00:09:47.787Z,93988.00
2023-04-01T00:10:47.786Z,93988.00
2023-04-01T00:11:47.808Z,93984.00
2023-04-01T00:12:47.838Z,93984.00
2023-04-01T00:13:47.894Z,93982.00
2023-04-01T00:14:47.839Z,93986.00
2023-04-01T00:15:47.911Z,93986.00
2023-04-01T00:16:47.908Z,93988.00
2023-04-01T00:17:47.886Z,93988.00
2023-04-01T00:18:47.866Z,93982.00
2023-04-01T00:19:47.890Z,93986.00
2023-04-01T00:20:47.890Z,93984.00
2023-04-01T00:21:47.913Z,93986.00
2023-04-01T00:22:47.962Z,93988.00
2023-04-01T00:23:47.917Z,93988.00
2023-04-01T00:24:47.926Z,93986.00
2023-04-01T00:25:47.929Z,93986.00
2023-04-01T00:26:47.947Z,93984.00
2023-04-01T00:27:47.964Z,93982.00
2023-04-01T00:28:48.017Z,93982.00
2023-04-01T00:29:47.989Z,93976.00
2023-04-01T00:30:48.010Z,93976.00
2023-04-01T00:31:48.077Z,93978.00
2023-04-01T00:32:48.057Z,93980.00
2023-04-01T00:33:48.069Z,93980.00
2023-04-01T00:34:48.049Z,93984.00
2023-04-01T00:35:48.122Z,93984.00
2023-04-01T00:36:48.071Z,93986.00
2023-04-01T00:37:48.092Z,93984.00
2023-04-01T00:38:48.156Z,93984.00
2023-04-01T00:39:48.122Z,93984.00
2023-04-01T00:40:48.135Z,93984.00
2023-04-01T00:41:48.154Z,93984.00
2023-04-01T00:42:48.156Z,93980.00
2023-04-01T00:43:48.226Z,93978.00
2023-04-01T00:44:48.932Z,93978.00
2023-04-01T00:45:48.200Z,93976.00
2023-04-01T00:46:48.278Z,93978.00
2023-04-01T00:47:48.271Z,93976.00
2023-04-01T00:48:48.305Z,93978.00
2023-04-01T00:49:48.275Z,93978.00
2023-04-01T00:50:48.289Z,93984.00
2023-04-01T00:51:48.295Z,93986.00
2023-04-01T00:52:48.312Z,93984.00
2023-04-01T00:53:48.351Z,93982.00
2023-04-01T00:54:48.348Z,93980.00
2023-04-01T00:55:48.357Z,93982.00
2023-04-01T00:56:48.407Z,93980.00
2023-04-01T00:57:48.380Z,93978.00
2023-04-01T00:58:48.396Z,93978.00
2023-04-01T00:59:48.452Z,93976.00
2023-04-01T01:00:48.561Z,93974.00
2023-04-01T01:01:48.459Z,93972.00
2023-04-01T01:02:48.652Z,93972.00
2023-04-01T01:03:48.481Z,93974.00
2023-04-01T01:04:48.497Z,93972.00
2023-04-01T01:05:49.523Z,93974.00
2023-04-01T01:06:48.531Z,93974.00
2023-04-01T01:07:48.551Z,93974.00
2023-04-01T01:08:48.551Z,93974.00
2023-04-01T01:09:48.572Z,93976.00
2023-04-01T01:10:48.606Z,93974.00
2023-04-01T01:11:48.620Z,93972.00
2023-04-01T01:12:48.620Z,93972.00
2023-04-01T01:13:48.640Z,93970.00
2023-04-01T01:14:48.682Z,93970.00
2023-04-01T01:15:48.692Z,93972.00
2023-04-01T01:16:48.747Z,93968.00
2023-04-01T01:17:48.876Z,93970.00
2023-04-01T01:18:48.746Z,93970.00
2023-04-01T01:19:48.747Z,93972.00
2023-04-01T01:20:48.774Z,93968.00
2023-04-01T01:21:48.792Z,93968.00
2023-04-01T01:22:48.806Z,93968.00
2023-04-01T01:23:48.829Z,93968.00
2023-04-01T01:24:48.855Z,93968.00
2023-04-01T01:25:48.872Z,93964.00
2023-04-01T01:26:48.896Z,93966.00
2023-04-01T01:27:48.912Z,93964.00
2023-04-01T01:28:48.949Z,93968.00
2023-04-01T01:29:48.961Z,93966.00
2023-04-01T01:30:49.009Z,93964.00
2023-04-01T01:31:49.011Z,93962.00
2023-04-01T01:32:49.047Z,93962.00
2023-04-01T01:33:49.023Z,93960.00
2023-04-01T01:34:49.038Z,93960.00
2023-04-01T01:35:49.069Z,93958.00
2023-04-01T01:36:49.070Z,93954.00
2023-04-01T01:37:49.091Z,93952.00
2023-04-01T01:38:49.443Z,93952.00
2023-04-01T01:39:49.135Z,93952.00
2023-04-01T01:40:49.139Z,93950.00
2023-04-01T01:41:49.169Z,93954.00
2023-04-01T01:42:49.185Z,93952.00
2023-04-01T01:43:49.201Z,93956.00
2023-04-01T01:44:49.214Z,93954.00
2023-04-01T01:45:49.283Z,93954.00
2023-04-01T01:46:49.246Z,93952.00
2023-04-01T01:47:49.271Z,93954.00
2023-04-01T01:48:49.332Z,93950.00
2023-04-01T01:49:49.333Z,93950.00
2023-04-01T01:50:49.329Z,93950.00
2023-04-01T01:51:49.335Z,93950.00
2023-04-01T01:52:49.352Z,93950.00
2023-04-01T01:53:49.373Z,93946.00
2023-04-01T01:54:49.390Z,93944.00
2023-04-01T01:55:49.410Z,93944.00
2023-04-01T01:56:49.466Z,93944.00
2023-04-01T01:57:49.460Z,93944.00
2023-04-01T01:58:49.484Z,93944.00
2023-04-01T01:59:49.513Z,93943.00
2023-04-01T02:00:49.546Z,93939.00
2023-04-01T02:01:49.569Z,93935.00
2023-04-01T02:02:49.606Z,93933.00
2023-04-01T02:03:49.597Z,93927.00
2023-04-01T02:04:49.730Z,93931.00
2023-04-01T02:05:49.626Z,93931.00
2023-04-01T02:06:49.649Z,93935.00
2023-04-01T02:07:49.674Z,93937.00
2023-04-01T02:08:49.693Z,93941.00
2023-04-01T02:09:49.706Z,93941.00
2023-04-01T02:10:49.726Z,93943.00
2023-04-01T02:11:50.153Z,93943.00
2023-04-01T02:12:49.774Z,93946.00
2023-04-01T02:13:49.801Z,93950.00
2023-04-01T02:14:49.829Z,93952.00
2023-04-01T02:15:49.867Z,93952.00
2023-04-01T02:16:49.864Z,93952.00
2023-04-01T02:17:49.936Z,93954.00
2023-04-01T02:18:49.905Z,93954.00
2023-04-01T02:19:49.929Z,93952.00
2023-04-01T02:20:49.985Z,93952.00
2023-04-01T02:21:49.983Z,93952.00
2023-04-01T02:22:50.007Z,93952.00
2023-04-01T02:23:50.037Z,93952.00
2023-04-01T02:24:50.058Z,93950.00
2023-04-01T02:25:50.077Z,93946.00
2023-04-01T02:26:50.106Z,93944.00
2023-04-01T02:27:50.142Z,93943.00
2023-04-01T02:28:50.154Z,93941.00
2023-04-01T02:29:50.172Z,93943.00
2023-04-01T02:30:50.203Z,93944.00
2023-04-01T02:31:50.291Z,93946.00
2023-04-01T02:32:50.304Z,93948.00
2023-04-01T02:33:50.329Z,93948.00
2023-04-01T02:34:50.324Z,93950.00
2023-04-01T02:35:50.359Z,93948.00
2023-04-01T02:36:50.406Z,93948.00
2023-04-01T02:37:50.402Z,93948.00
2023-04-01T02:38:50.424Z,93950.00
2023-04-01T02:39:50.452Z,93952.00
2023-04-01T02:40:50.482Z,93954.00
2023-04-01T02:41:50.502Z,93954.00
2023-04-01T02:42:50.556Z,93956.00
2023-04-01T02:43:50.556Z,93958.00
2023-04-01T02:44:50.588Z,93962.00
2023-04-01T02:45:50.616Z,93966.00
2023-04-01T02:46:50.675Z,93972.00
2023-04-01T02:47:50.714Z,93976.00
2023-04-01T02:48:50.699Z,93980.00
2023-04-01T02:49:50.728Z,93980.00
2023-04-01T02:50:50.766Z,93978.00
2023-04-01T02:51:50.784Z,93974.00
2023-04-01T02:52:50.827Z,93970.00
2023-04-01T02:53:50.815Z,93970.00
2023-04-01T02:54:50.862Z,93970.00
2023-04-01T02:55:50.875Z,93972.00
2023-04-01T02:56:50.916Z,93972.00
2023-04-01T02:57:50.935Z,93976.00
2023-04-01T02:58:50.954Z,93978.00
2023-04-01T02:59:50.980Z,93980.00
2023-04-01T03:00:51.057Z,93982.00
2023-04-01T03:01:51.019Z,93984.00
2023-04-01T03:02:51.088Z,93986.00
2023-04-01T03:03:51.068Z,93990.00
2023-04-01T03:04:51.092Z,93990.00
2023-04-01T03:05:51.110Z,93995.00
2023-04-01T03:06:51.124Z,93995.00
2023-04-01T03:07:51.157Z,93997.00
2023-04-01T03:08:51.196Z,93999.00
2023-04-01T03:09:51.201Z,94001.00
2023-04-01T03:10:51.222Z,94007.00
2023-04-01T03:11:51.253Z,94009.00
2023-04-01T03:12:51.262Z,94011.00
2023-04-01T03:13:51.292Z,94013.00
2023-04-01T03:14:51.304Z,94011.00
2023-04-01T03:15:51.337Z,94015.00
2023-04-01T03:16:51.414Z,94017.00
2023-04-01T03:17:51.440Z,94019.00
2023-04-01T03:18:51.423Z,94021.00
2023-04-01T03:19:51.444Z,94021.00
2023-04-01T03:20:51.466Z,94023.00
2023-04-01T03:21:51.488Z,94023.00
2023-04-01T03:22:51.515Z,94019.00
2023-04-01T03:23:51.543Z,94019.00
2023-04-01T03:24:51.599Z,94019.00
2023-04-01T03:25:51.594Z,94023.00
2023-04-01T03:26:51.621Z,94023.00
2023-04-01T03:27:51.650Z,94021.00
2023-04-01T03:28:51.667Z,94021.00
2023-04-01T03:29:51.755Z,94021.00
2023-04-01T03:30:51.726Z,94029.00
2023-04-01T03:31:51.721Z,94029.00
2023-04-01T03:32:51.795Z,94023.00
2023-04-01T03:33:51.760Z,94025.00
2023-04-01T03:34:51.803Z,94029.00
2023-04-01T03:35:51.810Z,94029.00
2023-04-01T03:36:51.836Z,94031.00
2023-04-01T03:37:51.873Z,94031.00
2023-04-01T03:38:51.890Z,94031.00
2023-04-01T03:39:51.915Z,94029.00
2023-04-01T03:40:51.967Z,94029.00
2023-04-01T03:41:51.962Z,94027.00
2023-04-01T03:42:52.030Z,94025.00
2023-04-01T03:43:52.002Z,94027.00
2023-04-01T03:44:52.023Z,94027.00
2023-04-01T03:45:52.101Z,94031.00
2023-04-01T03:46:52.078Z,94033.00
2023-04-01T03:47:52.115Z,94031.00
2023-04-01T03:48:52.095Z,94031.00
2023-04-01T03:49:52.121Z,94029.00
2023-04-01T03:50:52.128Z,94031.00
2023-04-01T03:51:52.149Z,94031.00
2023-04-01T03:52:52.176Z,94027.00
2023-04-01T03:53:52.183Z,94025.00
2023-04-01T03:54:52.199Z,94025.00
2023-04-01T03:55:52.223Z,94023.00
2023-04-01T03:56:52.393Z,94023.00
2023-04-01T03:57:52.230Z,94023.00
2023-04-01T03:58:52.253Z,94023.00
2023-04-01T03:59:52.238Z,94021.00
2023-04-01T04:00:52.258Z,94021.00
2023-04-01T04:01:52.273Z,94023.00
2023-04-01T04:02:52.430Z,94025.00
2023-04-01T04:03:52.404Z,94023.00
2023-04-01T04:04:52.307Z,94027.00
2023-04-01T04:05:52.308Z,94027.00
2023-04-01T04:06:52.329Z,94035.00
2023-04-01T04:07:52.323Z,94035.00
2023-04-01T04:08:52.334Z,94037.00
2023-04-01T04:09:52.340Z,94039.00
2023-04-01T04:10:52.413Z,94039.00
2023-04-01T04:11:52.368Z,94042.00
2023-04-01T04:12:52.389Z,94039.00
2023-04-01T04:13:52.362Z,94037.00
2023-04-01T04:14:52.386Z,94037.00
2023-04-01T04:15:52.439Z,94041.00
2023-04-01T04:16:52.399Z,94039.00
2023-04-01T04:17:52.477Z,94042.00
2023-04-01T04:18:52.466Z,94041.00
2023-04-01T04:19:52.427Z,94041.00
2023-04-01T04:20:52.433Z,94041.00
2023-04-01T04:21:52.445Z,94041.00
2023-04-01T04:22:52.450Z,94039.00
2023-04-01T04:23:52.481Z,94037.00
2023-04-01T04:24:52.466Z,94039.00
2023-04-01T04:25:52.465Z,94041.00
2023-04-01T04:26:52.467Z,94039.00
2023-04-01T04:27:52.484Z,94042.00
2023-04-01T04:28:52.504Z,94041.00
2023-04-01T04:29:52.485Z,94041.00
2023-04-01T04:30:52.502Z,94041.00
2023-04-01T04:31:52.530Z,94041.00
2023-04-01T04:32:52.526Z,94042.00
2023-04-01T04:33:52.558Z,94042.00
2023-04-01T04:34:52.507Z,94044.00
2023-04-01T04:35:52.539Z,94044.00
2023-04-01T04:36:52.515Z,94044.00
2023-04-01T04:37:52.529Z,94044.00
2023-04-01T04:38:52.535Z,94042.00
2023-04-01T04:39:52.520Z,94044.00
2023-04-01T04:40:52.520Z,94044.00
2023-04-01T04:41:52.560Z,94044.00
2023-04-01T04:42:52.508Z,94044.00
2023-04-01T04:43:52.507Z,94042.00
2023-04-01T04:44:52.530Z,94042.00
2023-04-01T04:45:52.513Z,94048.00
2023-04-01T04:46:52.536Z,94050.00
2023-04-01T04:47:52.546Z,94050.00
2023-04-01T04:48:52.518Z,94054.00
2023-04-01T04:49:52.516Z,94052.00
2023-04-01T04:50:52.512Z,94052.00
2023-04-01T04:51:52.512Z,94050.00
2023-04-01T04:52:52.516Z,94048.00
2023-04-01T04:53:53.135Z,94046.00
2023-04-01T04:54:52.515Z,94046.00
2023-04-01T04:55:52.521Z,94048.00
2023-04-01T04:56:52.558Z,94046.00
2023-04-01T04:57:52.531Z,94048.00
2023-04-01T04:58:52.564Z,94046.00
2023-04-01T04:59:52.543Z,94046.00
2023-04-01T05:00:52.635Z,94048.00
2023-04-01T05:01:52.610Z,94050.00
2023-04-01T05:02:52.621Z,94050.00
2023-04-01T05:03:52.559Z,94052.00
2023-04-01T05:04:52.555Z,94052.00
2023-04-01T05:05:52.567Z,94052.00
2023-04-01T05:06:52.559Z,94054.00
2023-04-01T05:07:52.562Z,94054.00
2023-04-01T05:08:52.561Z,94054.00
2023-04-01T05:09:52.587Z,94052.00
2023-04-01T05:10:52.587Z,94050.00
2023-04-01T05:11:52.618Z,94052.00
2023-04-01T05:12:52.613Z,94052.00
2023-04-01T05:13:52.634Z,94050.00
2023-04-01T05:14:52.658Z,94048.00
2023-04-01T05:15:52.679Z,94046.00
2023-04-01T05:16:52.771Z,94050.00
2023-04-01T05:17:52.769Z,94050.00
2023-04-01T05:18:52.724Z,94052.00
2023-04-01T05:19:52.741Z,94054.00
2023-04-01T05:20:52.742Z,94054.00
2023-04-01T05:21:52.751Z,94056.00
2023-04-01T05:22:52.775Z,94058.00
2023-04-01T05:23:52.781Z,94060.00
2023-04-01T05:24:52.831Z,94058.00
2023-04-01T05:25:52.835Z,94054.00
2023-04-01T05:26:53.436Z,94054.00
2023-04-01T05:27:52.854Z,94056.00
2023-04-01T05:28:52.832Z,94058.00
2023-04-01T05:29:52.832Z,94062.00
2023-04-01T05:30:52.905Z,94064.00
2023-04-01T05:31:52.814Z,94066.00
2023-04-01T05:32:52.897Z,94066.00
2023-04-01T05:33:52.805Z,94068.00
2023-04-01T05:34:52.800Z,94068.00
2023-04-01T05:35:52.868Z,94068.00
2023-04-01T05:36:52.790Z,94068.00
2023-04-01T05:37:52.788Z,94068.00
2023-04-01T05:38:52.780Z,94068.00
2023-04-01T05:39:52.785Z,94064.00
2023-04-01T05:40:52.761Z,94064.00
2023-04-01T05:41:52.758Z,94062.00
2023-04-01T05:42:52.765Z,94062.00
2023-04-01T05:43:52.755Z,94062.00
2023-04-01T05:44:52.746Z,94066.00
2023-04-01T05:45:52.761Z,94066.00
2023-04-01T05:46:53.536Z,94072.00
2023-04-01T05:47:52.818Z,94074.00
2023-04-01T05:48:52.748Z,94074.00
2023-04-01T05:49:52.750Z,94076.00
2023-04-01T05:50:52.736Z,94078.00
2023-04-01T05:51:52.712Z,94078.00
2023-04-01T05:52:52.729Z,94080.00
2023-04-01T05:53:52.707Z,94080.00
2023-04-01T05:54:52.700Z,94080.00
2023-04-01T05:55:52.702Z,94080.00
2023-04-01T05:56:52.747Z,94080.00
2023-04-01T05:57:52.710Z,94082.00
2023-04-01T05:58:52.737Z,94082.00
2023-04-01T05:59:52.717Z,94078.00
2023-04-01T06:01:05.765Z,94078.00
2023-04-01T06:01:52.685Z,94080.00
2023-04-01T06:02:52.770Z,94084.00
2023-04-01T06:03:52.971Z,94082.00
2023-04-01T06:04:52.866Z,94078.00
2023-04-01T06:05:52.703Z,94082.00
2023-04-01T06:06:52.724Z,94082.00
2023-04-01T06:07:52.691Z,94086.00
2023-04-01T06:08:52.693Z,94086.00
2023-04-01T06:09:52.681Z,94086.00
2023-04-01T06:10:52.690Z,94084.00
2023-04-01T06:11:52.692Z,94084.00
2023-04-01T06:12:52.682Z,94086.00
2023-04-01T06:13:52.672Z,94086.00
2023-04-01T06:14:52.676Z,94086.00
2023-04-01T06:15:52.745Z,94088.00
2023-04-01T06:16:52.665Z,94089.00
2023-04-01T06:17:52.671Z,94089.00
2023-04-01T06:18:52.663Z,94084.00
2023-04-01T06:19:52.653Z,94082.00
2023-04-01T06:20:52.685Z,94082.00
2023-04-01T06:21:52.700Z,94082.00
2023-04-01T06:22:52.684Z,94082.00
2023-04-01T06:23:52.646Z,94086.00
2023-04-01T06:24:52.646Z,94084.00
2023-04-01T06:25:52.679Z,94084.00
2023-04-01T06:26:52.661Z,94084.00
2023-04-01T06:27:52.651Z,94086.00
2023-04-01T06:28:52.725Z,94086.00
2023-04-01T06:29:52.737Z,94084.00
2023-04-01T06:30:52.774Z,94084.00
2023-04-01T06:31:52.845Z,94086.00
2023-04-01T06:32:52.891Z,94088.00
2023-04-01T06:33:52.891Z,94089.00
2023-04-01T06:34:52.936Z,94089.00
2023-04-01T06:35:53.029Z,94091.00
2023-04-01T06:36:53.084Z,94093.00
2023-04-01T06:37:53.024Z,94093.00
2023-04-01T06:38:53.076Z,94097.00
2023-04-01T06:39:53.126Z,94097.00
2023-04-01T06:40:53.160Z,94097.00
2023-04-01T06:41:53.211Z,94097.00
2023-04-01T06:42:53.259Z,94097.00
2023-04-01T06:43:53.286Z,94097.00
2023-04-01T06:44:53.325Z,94101.00
2023-04-01T06:45:53.425Z,94099.00
2023-04-01T06:46:53.408Z,94097.00
2023-04-01T06:47:53.446Z,94099.00
2023-04-01T06:48:53.490Z,94101.00
2023-04-01T06:49:53.517Z,94097.00
2023-04-01T06:50:53.553Z,94101.00
2023-04-01T06:51:53.625Z,94097.00
2023-04-01T06:52:53.663Z,94097.00
2023-04-01T06:53:53.683Z,94099.00
2023-04-01T06:54:53.719Z,94101.00
2023-04-01T06:55:53.759Z,94101.00
2023-04-01T06:56:53.806Z,94101.00
2023-04-01T06:57:53.820Z,94099.00
2023-04-01T06:58:53.852Z,94095.00
2023-04-01T06:59:53.889Z,94095.00
2023-04-01T07:00:53.934Z,94089.00
2023-04-01T07:01:53.949Z,94082.00
2023-04-01T07:02:54.010Z,94082.00
2023-04-01T07:03:54.026Z,94080.00
2023-04-01T07:04:54.044Z,94078.00
2023-04-01T07:05:54.080Z,94070.00
2023-04-01T07:06:54.115Z,94068.00
2023-04-01T07:07:54.133Z,94064.00
2023-04-01T07:08:54.202Z,94054.00
2023-04-01T07:09:54.338Z,94058.00
2023-04-01T07:10:54.220Z,94056.00
2023-04-01T07:11:54.251Z,94058.00
2023-04-01T07:12:54.287Z,94060.00
2023-04-01T07:13:54.313Z,94058.00
2023-04-01T07:14:54.335Z,94058.00
2023-04-01T07:15:55.516Z,94058.00
2023-04-01T07:16:54.348Z,94058.00
2023-04-01T07:17:54.369Z,94056.00
2023-04-01T07:18:54.301Z,94052.00
2023-04-01T07:19:54.280Z,94052.00
2023-04-01T07:20:54.271Z,94054.00
2023-04-01T07:21:54.261Z,94052.00
2023-04-01T07:22:54.240Z,94052.00
2023-04-01T07:23:54.332Z,94048.00
2023-04-01T07:24:54.261Z,94052.00
2023-04-01T07:25:54.203Z,94050.00
2023-04-01T07:26:54.186Z,94054.00
2023-04-01T07:27:54.180Z,94054.00
2023-04-01T07:28:54.188Z,94054.00
2023-04-01T07:29:54.155Z,94054.00
2023-04-01T07:30:54.196Z,94056.00
2023-04-01T07:31:54.161Z,94056.00
2023-04-01T07:32:54.208Z,94056.00
2023-04-01T07:33:54.105Z,94052.00
2023-04-01T07:34:54.098Z,94056.00
2023-04-01T07:35:54.101Z,94052.00
2023-04-01T07:36:54.108Z,94052.00
2023-04-01T07:37:54.068Z,94056.00
2023-04-01T07:38:54.129Z,94050.00
2023-04-01T07:39:54.055Z,94054.00
2023-04-01T07:40:54.073Z,94054.00
2023-04-01T07:41:54.041Z,94056.00
2023-04-01T07:42:54.499Z,94054.00
2023-04-01T07:43:54.047Z,94056.00
2023-04-01T07:44:54.027Z,94056.00
2023-04-01T07:45:54.037Z,94058.00
2023-04-01T07:46:54.026Z,94056.00
2023-04-01T07:47:54.066Z,94060.00
2023-04-01T07:48:54.012Z,94060.00
2023-04-01T07:49:54.066Z,94062.00
2023-04-01T07:50:54.110Z,94062.00
2023-04-01T07:51:54.145Z,94066.00
2023-04-01T07:52:54.193Z,94066.00
2023-04-01T07:53:54.241Z,94064.00
2023-04-01T07:54:54.271Z,94066.00
2023-04-01T07:55:54.320Z,94062.00
2023-04-01T07:56:54.432Z,94064.00
2023-04-01T07:57:54.402Z,94066.00
2023-04-01T07:58:54.448Z,94070.00
2023-04-01T07:59:54.480Z,94068.00
2023-04-01T08:00:54.525Z,94070.00
2023-04-01T08:01:54.577Z,94068.00
2023-04-01T08:02:54.671Z,94068.00
2023-04-01T08:03:54.779Z,94068.00
2023-04-01T08:04:54.748Z,94070.00
2023-04-01T08:05:54.723Z,94072.00
2023-04-01T08:06:54.748Z,94068.00
2023-04-01T08:07:54.792Z,94072.00
2023-04-01T08:08:54.835Z,94070.00
2023-04-01T08:09:54.851Z,94070.00
2023-04-01T08:10:54.875Z,94074.00
2023-04-01T08:11:54.902Z,94074.00
2023-04-01T08:12:54.956Z,94074.00
2023-04-01T08:13:54.953Z,94072.00
2023-04-01T08:14:54.973Z,94074.00
2023-04-01T08:15:55.059Z,94066.00
2023-04-01T08:16:55.022Z,94064.00
2023-04-01T08:17:55.058Z,94058.00
2023-04-01T08:18:55.075Z,94060.00
2023-04-01T08:19:55.103Z,94060.00
2023-04-01T08:20:55.129Z,94058.00
2023-04-01T08:21:55.151Z,94058.00
2023-04-01T08:22:55.183Z,94064.00
2023-04-01T08:23:55.192Z,94062.00
2023-04-01T08:24:55.212Z,94064.00
2023-04-01T08:25:55.232Z,94062.00
2023-04-01T08:26:55.249Z,94058.00
2023-04-01T08:27:55.264Z,94054.00
2023-04-01T08:28:55.297Z,94054.00
2023-04-01T08:29:55.284Z,94052.00
2023-04-01T08:30:55.279Z,94048.00
2023-04-01T08:31:55.333Z,94044.00
2023-04-01T08:32:55.326Z,94046.00
2023-04-01T08:33:55.273Z,94044.00
2023-04-01T08:34:55.285Z,94044.00
2023-04-01T08:35:55.264Z,94044.00
2023-04-01T08:36:55.281Z,94044.00
2023-04-01T08:37:55.227Z,94039.00
2023-04-01T08:38:55.216Z,94039.00
2023-04-01T08:39:55.208Z,94037.00
2023-04-01T08:40:55.186Z,94035.00
2023-04-01T08:41:55.161Z,94031.00
2023-04-01T08:42:55.132Z,94031.00
2023-04-01T08:43:55.109Z,94031.00
2023-04-01T08:44:55.126Z,94031.00
2023-04-01T08:45:55.111Z,94025.00
2023-04-01T08:46:55.075Z,94023.00
2023-04-01T08:47:55.068Z,94021.00
2023-04-01T08:48:55.098Z,94025.00
2023-04-01T08:49:55.101Z,94023.00
2023-04-01T08:50:55.117Z,94025.00
2023-04-01T08:51:55.147Z,94021.00
2023-04-01T08:52:55.152Z,94019.00
2023-04-01T08:53:55.175Z,94023.00
2023-04-01T08:54:55.215Z,94019.00
2023-04-01T08:55:55.245Z,94021.00
2023-04-01T08:56:55.282Z,94021.00
2023-04-01T08:57:56.256Z,94021.00
2023-04-01T08:58:55.335Z,94021.00
2023-04-01T08:59:55.365Z,94019.00
2023-04-01T09:00:55.409Z,94019.00
2023-04-01T09:01:55.433Z,94017.00
2023-04-01T09:02:55.544Z,94015.00
2023-04-01T09:03:55.663Z,94019.00
2023-04-01T09:04:55.495Z,94017.00
2023-04-01T09:05:55.529Z,94015.00
2023-04-01T09:06:55.526Z,94019.00
2023-04-01T09:07:55.549Z,94015.00
2023-04-01T09:08:55.573Z,94015.00
2023-04-01T09:09:55.584Z,94017.00
2023-04-01T09:10:55.597Z,94015.00
2023-04-01T09:11:55.640Z,94015.00
2023-04-01T09:12:55.610Z,94015.00
2023-04-01T09:13:55.620Z,94015.00
2023-04-01T09:14:55.626Z,94015.00
2023-04-01T09:15:55.732Z,94019.00
2023-04-01T09:16:55.647Z,94017.00
2023-04-01T09:17:55.662Z,94017.00
2023-04-01T09:18:55.630Z,94015.00
2023-04-01T09:19:55.625Z,94017.00
2023-04-01T09:20:55.641Z,94009.00
2023-04-01T09:21:55.616Z,94011.00
2023-04-01T09:22:55.617Z,94011.00
2023-04-01T09:23:55.600Z,94009.00
2023-04-01T09:24:55.588Z,94007.00
2023-04-01T09:25:55.568Z,94005.00
2023-04-01T09:26:55.557Z,94007.00
2023-04-01T09:27:55.536Z,94011.00
2023-04-01T09:28:55.518Z,94005.00
2023-04-01T09:29:55.510Z,94005.00
2023-04-01T09:30:55.548Z,94005.00
2023-04-01T09:31:55.496Z,93999.00
2023-04-01T09:32:55.521Z,94003.00
2023-04-01T09:33:55.406Z,93999.00
2023-04-01T09:34:55.376Z,94003.00
2023-04-01T09:35:55.395Z,94003.00
2023-04-01T09:36:55.304Z,94001.00
2023-04-01T09:37:55.275Z,93995.00
2023-04-01T09:38:55.240Z,93995.00
2023-04-01T09:39:55.213Z,93997.00
2023-04-01T09:40:55.159Z,93995.00
2023-04-01T09:41:55.111Z,93994.00
2023-04-01T09:42:55.067Z,93997.00
2023-04-01T09:43:55.014Z,93994.00
2023-04-01T09:44:54.967Z,93992.00
2023-04-01T09:45:54.962Z,93988.00
2023-04-01T09:46:54.863Z,93990.00
2023-04-01T09:47:54.922Z,93992.00
2023-04-01T09:48:54.809Z,93992.00
2023-04-01T09:49:54.756Z,93988.00
2023-04-01T09:50:54.743Z,93992.00
2023-04-01T09:51:54.700Z,93990.00
2023-04-01T09:52:54.714Z,93986.00
2023-04-01T09:53:54.728Z,93982.00
2023-04-01T09:54:54.714Z,93982.00
2023-04-01T09:55:54.727Z,93978.00
2023-04-01T09:56:54.725Z,93974.00
2023-04-01T09:57:54.690Z,93980.00
2023-04-01T09:58:54.703Z,93976.00
2023-04-01T09:59:54.728Z,93978.00
2023-04-01T10:00:54.738Z,93976.00
2023-04-01T10:01:54.772Z,93974.00
2023-04-01T10:02:54.805Z,93972.00
2023-04-01T10:03:54.729Z,93966.00
2023-04-01T10:04:54.743Z,93970.00
2023-04-01T10:05:54.801Z,93968.00
2023-04-01T10:06:54.756Z,93968.00
2023-04-01T10:07:54.746Z,93970.00
2023-04-01T10:08:54.794Z,93964.00
2023-04-01T10:09:54.781Z,93962.00
2023-04-01T10:10:54.817Z,93958.00
2023-04-01T10:11:54.785Z,93958.00
2023-04-01T10:12:54.798Z,93952.00
2023-04-01T10:13:54.803Z,93948.00
2023-04-01T10:14:54.820Z,93948.00
2023-04-01T10:15:54.953Z,93943.00
2023-04-01T10:16:54.848Z,93948.00
2023-04-01T10:17:54.905Z,93944.00
2023-04-01T10:18:54.863Z,93943.00
2023-04-01T10:19:54.863Z,93941.00
2023-04-01T10:20:54.893Z,93941.00
2023-04-01T10:21:54.871Z,93941.00
2023-04-01T10:22:54.870Z,93937.00
2023-04-01T10:23:54.876Z,93939.00
2023-04-01T10:24:54.874Z,93937.00
2023-04-01T10:25:54.879Z,93933.00
2023-04-01T10:26:54.882Z,93931.00
2023-04-01T10:27:54.975Z,93931.00
2023-04-01T10:28:54.890Z,93927.00
2023-04-01T10:29:54.893Z,93923.00
2023-04-01T10:30:54.885Z,93923.00
2023-04-01T10:31:54.908Z,93925.00
2023-04-01T10:32:54.941Z,93921.00
2023-04-01T10:33:54.880Z,93923.00
2023-04-01T10:34:54.882Z,93923.00
2023-04-01T10:35:54.883Z,93923.00
2023-04-01T10:36:54.899Z,93921.00
2023-04-01T10:37:54.878Z,93917.00
2023-04-01T10:38:54.872Z,93921.00
2023-04-01T10:39:54.857Z,93915.00
2023-04-01T10:40:54.851Z,93917.00
2023-04-01T10:41:54.823Z,93919.00
2023-04-01T10:42:54.816Z,93917.00
2023-04-01T10:43:54.814Z,93919.00
2023-04-01T10:44:54.815Z,93917.00
2023-04-01T10:45:54.824Z,93911.00
2023-04-01T10:46:54.801Z,93911.00
2023-04-01T10:47:54.863Z,93907.00
2023-04-01T10:48:54.820Z,93905.00
2023-04-01T10:49:54.784Z,93907.00
2023-04-01T10:50:54.781Z,93903.00
2023-04-01T10:51:54.781Z,93905.00
2023-04-01T10:52:54.815Z,93905.00
2023-04-01T10:53:54.777Z,93899.00
2023-04-01T10:54:54.766Z,93899.00
2023-04-01T10:55:54.761Z,93899.00
2023-04-01T10:56:54.758Z,93897.00
2023-04-01T10:57:54.749Z,93897.00
2023-04-01T10:58:54.756Z,93893.00
2023-04-01T10:59:54.750Z,93892.00
2023-04-01T11:00:54.762Z,93892.00
2023-04-01T11:02:03.917Z,93892.00
2023-04-01T11:02:54.705Z,93890.00
2023-04-01T11:03:54.770Z,93890.00
2023-04-01T11:04:54.547Z,93888.00
2023-04-01T11:05:54.507Z,93888.00
2023-04-01T11:06:54.435Z,93886.00
2023-04-01T11:08:05.478Z,93886.00
2023-04-01T11:08:54.347Z,93884.00
2023-04-01T11:09:54.264Z,93884.00
2023-04-01T11:10:54.204Z,93880.00
2023-04-01T11:11:54.145Z,93884.00
2023-04-01T11:12:54.098Z,93880.00
2023-04-01T11:13:54.034Z,93880.00
2023-04-01T11:14:53.967Z,93880.00
2023-04-01T11:15:53.965Z,93880.00
2023-04-01T11:16:53.846Z,93878.00
2023-04-01T11:17:53.843Z,93880.00
2023-04-01T11:18:53.736Z,93878.00
2023-04-01T11:19:53.726Z,93876.00
2023-04-01T11:20:53.602Z,93876.00
2023-04-01T11:21:53.539Z,93874.00
2023-04-01T11:22:53.496Z,93874.00
2023-04-01T11:24:04.568Z,93872.00
2023-04-01T11:24:53.403Z,93872.00
2023-04-01T11:25:53.320Z,93870.00
2023-04-01T11:26:53.287Z,93874.00
2023-04-01T11:27:53.192Z,93872.00
2023-04-01T11:28:53.142Z,93872.00
2023-04-01T11:29:59.699Z,93872.00
2023-04-01T11:30:53.024Z,93868.00
2023-04-01T11:31:53.025Z,93870.00
2023-04-01T11:32:52.898Z,93872.00
2023-04-01T11:33:52.839Z,93874.00
2023-04-01T11:34:52.787Z,93870.00
2023-04-01T11:35:52.740Z,93872.00
2023-04-01T11:36:52.769Z,93870.00
2023-04-01T11:37:52.634Z,93870.00
2023-04-01T11:38:52.568Z,93868.00
2023-04-01T11:39:52.517Z,93872.00
2023-04-01T11:40:52.490Z,93870.00
2023-04-01T11:41:52.439Z,93868.00
2023-04-01T11:42:52.355Z,93868.00
2023-04-01T11:43:52.338Z,93870.00
2023-04-01T11:44:52.258Z,93870.00